Terminal Aerodrome Forecast
Issued by NWS

Current Version | Previous Version | Graphics & Text | Print | Product List | Glossary On
Versions: 1 2 3 4 5 6 7 8 9 10 11 12 13 14 15 16 17 18 19 20 21 22 23 24 25 26 27
000
FTUS41 KILN 281200 AAB
TAFLUK
TAF AMD
KLUK 281222Z 2812/2912 32006KT P6SM SCT010 OVC025
      TEMPO 2812/2815 4SM BR OVC015
     FM281800 35006KT P6SM BKN025
     FM290900 03003KT P6SM OVC020=

USA.gov is the U.S. government's official web portal to all federal, state and local government web resources and services.